Time;durP1;ratioP1;P1;durP2;ratioP2;P2;SDS_P1;SDS_P2;PMS_P1;PMS_P2;Temp;Humidity;BMP_temperature;BMP_pressure;BME280_temperature;BME280_humidity;BME280_pressure;Samples;Min_cycle;Max_cycle;Signal;HPM_P1;HPM_P2
2022/03/28 00:00:51;;;;;;;9.70;3.10;;;;;;;;;;5049119;28;20368;-50
2022/03/28 00:03:17;;;;;;;12.02;3.65;;;;;;;;;;5049031;28;20483;-48
2022/03/28 00:05:43;;;;;;;11.70;2.92;;;;;;;;;;5048555;28;20021;-49
2022/03/28 00:08:09;;;;;;;7.68;2.92;;;;;;;;;;5048859;28;20025;-49
2022/03/28 00:10:35;;;;;;;10.25;2.80;;;;;;;;;;5047925;28;20048;-49
2022/03/28 00:13:02;;;;;;;10.30;2.92;;;;;;;;;;5048078;28;20044;-49
2022/03/28 00:15:28;;;;;;;15.30;3.30;;;;;;;;;;5048759;28;20009;-49
2022/03/28 00:17:54;;;;;;;11.85;3.60;;;;;;;;;;5048483;28;20506;-50
2022/03/28 00:20:21;;;;;;;11.55;3.75;;;;;;;;;;5048574;28;20025;-51
2022/03/28 00:22:46;;;;;;;7.82;2.67;;;;;;;;;;5048702;28;20113;-49
2022/03/28 00:25:12;;;;;;;9.88;3.33;;;;;;;;;;5047698;28;20079;-48
2022/03/28 00:27:39;;;;;;;9.90;2.83;;;;;;;;;;5042329;28;20131;-47
2022/03/28 00:30:06;;;;;;;11.93;3.40;;;;;;;;;;5048281;28;20039;-50
2022/03/28 00:32:32;;;;;;;9.40;3.38;;;;;;;;;;5048236;28;20170;-47
2022/03/28 00:34:59;;;;;;;10.02;3.30;;;;;;;;;;5047824;28;20040;-47
2022/03/28 00:37:26;;;;;;;11.43;3.45;;;;;;;;;;5048275;28;20029;-47
2022/03/28 00:39:52;;;;;;;11.32;3.25;;;;;;;;;;5048551;28;20067;-47
2022/03/28 00:42:18;;;;;;;8.85;2.67;;;;;;;;;;5046357;28;20052;-48
2022/03/28 00:44:44;;;;;;;10.90;3.30;;;;;;;;;;5048574;28;20121;-46
2022/03/28 00:47:10;;;;;;;9.43;3.85;;;;;;;;;;5047662;28;20053;-48
2022/03/28 00:49:36;;;;;;;10.65;3.58;;;;;;;;;;5048054;28;20087;-48
2022/03/28 00:52:03;;;;;;;11.43;3.00;;;;;;;;;;5047322;28;20037;-47
2022/03/28 00:54:29;;;;;;;9.65;3.08;;;;;;;;;;5047859;28;20543;-46
2022/03/28 00:56:55;;;;;;;7.82;2.47;;;;;;;;;;5047267;28;20554;-48
2022/03/28 00:59:21;;;;;;;10.82;3.40;;;;;;;;;;5052150;28;20025;-48
2022/03/28 01:01:47;;;;;;;9.13;3.13;;;;;;;;;;5051719;28;20108;-50
2022/03/28 01:04:15;;;;;;;8.65;2.90;;;;;;;;;;5052234;28;20025;-49
2022/03/28 01:06:41;;;;;;;10.77;3.45;;;;;;;;;;5052363;28;20037;-47
2022/03/28 01:09:08;;;;;;;9.98;2.58;;;;;;;;;;5051835;28;20057;-47
2022/03/28 01:11:34;;;;;;;7.60;2.78;;;;;;;;;;5051172;28;20071;-48
2022/03/28 01:14:01;;;;;;;6.47;2.30;;;;;;;;;;5051535;28;20090;-48
2022/03/28 01:16:30;;;;;;;11.07;3.55;;;;;;;;;;5051917;28;20131;-50
2022/03/28 01:18:56;;;;;;;9.60;2.95;;;;;;;;;;5051766;28;20027;-48
2022/03/28 01:21:22;;;;;;;8.65;2.90;;;;;;;;;;5051490;28;20121;-47
2022/03/28 01:23:49;;;;;;;8.07;2.40;;;;;;;;;;5051515;28;20052;-46
2022/03/28 01:26:16;;;;;;;8.05;3.13;;;;;;;;;;5050792;28;20167;-45
2022/03/28 01:28:42;;;;;;;9.18;2.92;;;;;;;;;;5051245;28;20138;-49
2022/03/28 01:31:08;;;;;;;10.23;3.30;;;;;;;;;;5051421;28;20033;-49
2022/03/28 01:33:37;;;;;;;7.55;2.45;;;;;;;;;;5051148;28;20103;-49
2022/03/28 01:36:03;;;;;;;6.40;2.20;;;;;;;;;;5051438;28;20025;-48
2022/03/28 01:38:29;;;;;;;10.05;3.38;;;;;;;;;;5051059;28;20700;-49
2022/03/28 01:40:55;;;;;;;8.32;2.67;;;;;;;;;;5049631;28;20508;-50
2022/03/28 01:43:23;;;;;;;8.77;3.13;;;;;;;;;;5050743;28;20132;-49
2022/03/28 01:45:50;;;;;;;9.95;2.50;;;;;;;;;;5051524;28;20471;-52
2022/03/28 01:48:17;;;;;;;9.90;2.97;;;;;;;;;;5050755;28;20055;-49
2022/03/28 01:50:43;;;;;;;8.13;2.67;;;;;;;;;;5050788;28;20029;-46
2022/03/28 01:53:09;;;;;;;10.15;3.03;;;;;;;;;;5051509;28;20467;-44
2022/03/28 01:55:36;;;;;;;9.32;2.85;;;;;;;;;;5050029;28;20025;-50
2022/03/28 01:58:02;;;;;;;8.52;2.63;;;;;;;;;;5033498;28;20046;-46
2022/03/28 02:00:34;;;;;;;9.52;2.50;;;;;;;;;;5050408;28;20130;-46
2022/03/28 02:03:00;;;;;;;7.18;2.25;;;;;;;;;;5050574;28;20677;-48
2022/03/28 02:05:27;;;;;;;11.70;3.15;;;;;;;;;;5050900;28;20025;-49
2022/03/28 02:07:53;;;;;;;9.18;3.35;;;;;;;;;;5051433;28;20072;-45
2022/03/28 02:10:20;;;;;;;12.73;2.95;;;;;;;;;;5049243;28;20033;-48
2022/03/28 02:12:46;;;;;;;7.93;2.58;;;;;;;;;;5050786;28;20029;-47
2022/03/28 02:15:13;;;;;;;6.97;2.20;;;;;;;;;;5050870;28;20545;-50
2022/03/28 02:17:39;;;;;;;9.50;2.97;;;;;;;;;;5049499;28;20037;-50
2022/03/28 02:20:08;;;;;;;8.10;2.35;;;;;;;;;;5050452;28;20033;-46
2022/03/28 02:22:34;;;;;;;8.05;2.42;;;;;;;;;;5050266;28;20032;-51
2022/03/28 02:25:00;;;;;;;8.82;3.03;;;;;;;;;;5050541;28;20108;-48
2022/03/28 02:27:26;;;;;;;7.45;2.80;;;;;;;;;;5037936;28;20195;-48
2022/03/28 02:29:52;;;;;;;8.90;2.83;;;;;;;;;;5036804;28;20037;-49
2022/03/28 02:32:18;;;;;;;8.80;2.53;;;;;;;;;;5050095;28;20465;-48
2022/03/28 02:34:44;;;;;;;8.50;2.88;;;;;;;;;;5050432;28;20104;-46
2022/03/28 02:37:10;;;;;;;8.38;3.10;;;;;;;;;;5050583;28;20099;-47
2022/03/28 02:39:37;;;;;;;7.57;2.22;;;;;;;;;;5050721;28;20040;-49
2022/03/28 02:42:03;;;;;;;9.45;2.50;;;;;;;;;;5049750;28;20032;-50
2022/03/28 02:44:29;;;;;;;8.05;3.00;;;;;;;;;;5050702;28;20107;-48
2022/03/28 02:46:55;;;;;;;10.98;2.90;;;;;;;;;;5050035;28;20216;-51
2022/03/28 02:49:22;;;;;;;8.15;2.65;;;;;;;;;;5037295;28;20112;-46
2022/03/28 02:51:48;;;;;;;11.18;3.25;;;;;;;;;;5046192;28;20483;-49
2022/03/28 02:54:14;;;;;;;7.97;2.80;;;;;;;;;;5050416;28;20036;-50
2022/03/28 02:56:40;;;;;;;8.07;2.22;;;;;;;;;;5048695;28;20438;-52
2022/03/28 02:59:07;;;;;;;8.95;2.40;;;;;;;;;;5050020;28;20029;-46
2022/03/28 03:01:33;;;;;;;10.00;2.92;;;;;;;;;;5049758;28;20115;-48
2022/03/28 03:03:59;;;;;;;8.65;2.63;;;;;;;;;;5050320;28;20428;-52
2022/03/28 03:06:25;;;;;;;11.63;2.25;;;;;;;;;;5049740;28;20060;-46
2022/03/28 03:08:51;;;;;;;10.65;2.65;;;;;;;;;;5050113;28;20467;-50
2022/03/28 03:11:17;;;;;;;10.73;2.83;;;;;;;;;;5048548;28;20040;-46
2022/03/28 03:13:43;;;;;;;8.82;2.08;;;;;;;;;;5049650;28;20029;-51
2022/03/28 03:16:10;;;;;;;8.52;2.47;;;;;;;;;;5050040;28;20025;-47
2022/03/28 03:18:36;;;;;;;10.63;2.42;;;;;;;;;;5049755;28;20025;-48
2022/03/28 03:21:05;;;;;;;10.00;2.97;;;;;;;;;;5050018;28;20360;-48
2022/03/28 03:23:31;;;;;;;7.90;2.55;;;;;;;;;;5049695;28;20109;-49
2022/03/28 03:25:57;;;;;;;9.43;2.83;;;;;;;;;;5045945;28;20029;-52
2022/03/28 03:28:23;;;;;;;7.72;2.08;;;;;;;;;;5048609;28;20816;-50
2022/03/28 03:30:49;;;;;;;10.48;2.95;;;;;;;;;;5049333;28;20041;-49
2022/03/28 03:33:15;;;;;;;8.05;2.72;;;;;;;;;;5050264;28;20094;-49
2022/03/28 03:35:41;;;;;;;7.40;2.60;;;;;;;;;;5050040;28;20029;-50
2022/03/28 03:38:07;;;;;;;9.30;2.67;;;;;;;;;;5049456;28;20095;-54
2022/03/28 03:40:33;;;;;;;8.70;3.08;;;;;;;;;;5048004;28;20116;-49
2022/03/28 03:42:59;;;;;;;8.77;3.25;;;;;;;;;;5049544;28;20104;-51
2022/03/28 03:45:28;;;;;;;9.23;2.80;;;;;;;;;;5049258;28;20136;-51
2022/03/28 03:47:54;;;;;;;8.45;2.10;;;;;;;;;;5049037;28;20025;-49
2022/03/28 03:50:20;;;;;;;8.73;2.60;;;;;;;;;;5049269;28;20120;-52
2022/03/28 03:52:47;;;;;;;7.85;2.63;;;;;;;;;;5048879;28;20025;-47
2022/03/28 03:55:14;;;;;;;7.28;3.08;;;;;;;;;;5046826;28;20196;-50
2022/03/28 03:57:40;;;;;;;7.55;2.17;;;;;;;;;;5046492;28;20111;-46
2022/03/28 04:00:07;;;;;;;9.15;2.95;;;;;;;;;;5049149;28;20565;-49
2022/03/28 04:02:33;;;;;;;6.95;2.58;;;;;;;;;;5049235;28;20064;-48
2022/03/28 04:04:59;;;;;;;6.68;2.15;;;;;;;;;;5049038;28;20082;-46
2022/03/28 04:07:25;;;;;;;7.05;2.55;;;;;;;;;;5048361;28;20112;-48
2022/03/28 04:09:51;;;;;;;7.10;2.38;;;;;;;;;;5048249;28;20451;-46
2022/03/28 04:12:17;;;;;;;9.82;2.75;;;;;;;;;;5047917;28;20033;-48
2022/03/28 04:14:44;;;;;;;7.18;2.15;;;;;;;;;;5048419;28;20029;-50
2022/03/28 04:17:10;;;;;;;9.25;3.00;;;;;;;;;;5048803;28;20099;-50
2022/03/28 04:19:36;;;;;;;7.88;2.50;;;;;;;;;;5048050;28;20111;-47
2022/03/28 04:22:02;;;;;;;6.78;2.83;;;;;;;;;;5048396;28;20024;-50
2022/03/28 04:24:28;;;;;;;9.30;2.30;;;;;;;;;;5048582;28;20111;-50
2022/03/28 04:26:54;;;;;;;9.65;2.75;;;;;;;;;;5047830;28;20068;-51
2022/03/28 04:29:20;;;;;;;8.30;2.67;;;;;;;;;;5048252;28;20634;-49
2022/03/28 04:31:46;;;;;;;9.32;2.65;;;;;;;;;;5047771;28;20473;-47
2022/03/28 04:34:12;;;;;;;10.27;2.85;;;;;;;;;;5046768;28;20025;-49
2022/03/28 04:36:38;;;;;;;15.10;3.72;;;;;;;;;;5048551;28;20372;-47
2022/03/28 04:39:05;;;;;;;10.40;3.60;;;;;;;;;;5048012;28;20040;-51
2022/03/28 04:41:31;;;;;;;10.82;4.28;;;;;;;;;;5047309;28;20043;-49
2022/03/28 04:43:58;;;;;;;13.30;3.72;;;;;;;;;;5047862;28;20017;-46
2022/03/28 04:46:24;;;;;;;9.43;3.38;;;;;;;;;;5047525;28;20770;-51
2022/03/28 04:48:50;;;;;;;12.75;4.20;;;;;;;;;;5038570;28;20022;-47
2022/03/28 04:51:16;;;;;;;15.25;4.60;;;;;;;;;;5047755;28;20045;-46
2022/03/28 04:53:42;;;;;;;9.88;3.40;;;;;;;;;;5048508;28;20029;-44
2022/03/28 04:56:08;;;;;;;14.73;5.13;;;;;;;;;;5042360;28;20041;-45
2022/03/28 04:58:35;;;;;;;17.55;4.22;;;;;;;;;;5048101;28;20527;-46
2022/03/28 05:01:01;;;;;;;12.95;4.03;;;;;;;;;;5048131;28;20397;-46
2022/03/28 05:03:27;;;;;;;12.70;4.15;;;;;;;;;;5048649;28;20655;-47
2022/03/28 05:05:53;;;;;;;13.60;4.82;;;;;;;;;;5047918;28;20159;-46
2022/03/28 05:08:19;;;;;;;13.50;5.65;;;;;;;;;;5048470;28;20112;-47
2022/03/28 05:10:46;;;;;;;14.52;5.57;;;;;;;;;;5047157;28;20110;-47
2022/03/28 05:13:12;;;;;;;17.05;5.13;;;;;;;;;;5048588;28;20491;-50
2022/03/28 05:15:38;;;;;;;18.20;5.22;;;;;;;;;;5048570;28;20044;-49
2022/03/28 05:18:04;;;;;;;28.08;5.78;;;;;;;;;;5047718;28;20479;-48
2022/03/28 05:20:30;;;;;;;38.60;7.15;;;;;;;;;;5036577;28;20025;-46
2022/03/28 05:22:56;;;;;;;27.60;5.70;;;;;;;;;;5048106;28;20059;-48
2022/03/28 05:25:22;;;;;;;34.35;6.05;;;;;;;;;;5046522;28;20064;-47
2022/03/28 05:27:48;;;;;;;24.38;6.20;;;;;;;;;;5040121;28;20076;-47
2022/03/28 05:30:15;;;;;;;23.25;5.75;;;;;;;;;;5035539;28;20153;-48
2022/03/28 05:32:42;;;;;;;28.20;6.38;;;;;;;;;;5040444;28;20360;-45
2022/03/28 05:35:09;;;;;;;17.90;4.18;;;;;;;;;;5034225;28;20040;-46
2022/03/28 05:37:35;;;;;;;22.25;5.20;;;;;;;;;;5040527;28;20029;-45
2022/03/28 05:40:02;;;;;;;21.50;5.30;;;;;;;;;;5035119;28;20038;-48
2022/03/28 05:42:28;;;;;;;15.75;5.63;;;;;;;;;;5038103;28;20056;-45
2022/03/28 05:44:54;;;;;;;26.98;5.03;;;;;;;;;;5040347;28;20120;-48
2022/03/28 05:47:20;;;;;;;21.60;5.63;;;;;;;;;;5041262;28;20013;-45
2022/03/28 05:49:46;;;;;;;12.63;4.47;;;;;;;;;;5041416;28;20581;-48
2022/03/28 05:52:12;;;;;;;15.95;4.40;;;;;;;;;;5042007;28;20034;-48
2022/03/28 05:54:38;;;;;;;24.90;5.40;;;;;;;;;;5041449;28;20479;-50
2022/03/28 05:57:05;;;;;;;27.80;4.78;;;;;;;;;;5041874;28;20119;-46
2022/03/28 05:59:31;;;;;;;24.77;5.00;;;;;;;;;;5039611;28;20017;-45
2022/03/28 06:01:57;;;;;;;31.58;5.13;;;;;;;;;;5040288;28;20025;-48
2022/03/28 06:04:23;;;;;;;31.00;4.88;;;;;;;;;;5046280;28;20035;-48
2022/03/28 06:06:50;;;;;;;18.92;4.38;;;;;;;;;;5051488;28;20020;-44
2022/03/28 06:09:16;;;;;;;21.55;4.43;;;;;;;;;;5051306;28;20036;-48
2022/03/28 06:11:42;;;;;;;18.98;4.00;;;;;;;;;;5050995;28;20067;-48
2022/03/28 06:14:09;;;;;;;19.30;4.10;;;;;;;;;;5041683;28;20459;-46
2022/03/28 06:16:35;;;;;;;18.88;5.25;;;;;;;;;;5051006;28;20102;-47
2022/03/28 06:19:01;;;;;;;30.73;4.10;;;;;;;;;;5045867;28;20480;-45
2022/03/28 06:21:30;;;;;;;27.77;5.00;;;;;;;;;;5050059;28;20078;-51
2022/03/28 06:23:57;;;;;;;33.72;4.90;;;;;;;;;;5042288;28;20055;-51
2022/03/28 06:26:23;;;;;;;29.55;5.70;;;;;;;;;;5038666;28;20029;-45
2022/03/28 06:28:49;;;;;;;23.98;5.55;;;;;;;;;;5042752;28;20509;-45
2022/03/28 06:31:15;;;;;;;29.17;5.28;;;;;;;;;;5037678;28;20046;-46
2022/03/28 06:33:41;;;;;;;25.60;4.78;;;;;;;;;;5045358;28;20036;-51
2022/03/28 06:36:08;;;;;;;24.85;5.35;;;;;;;;;;5047477;28;20033;-50
2022/03/28 06:38:34;;;;;;;23.27;4.68;;;;;;;;;;5049939;28;20155;-46
2022/03/28 06:41:00;;;;;;;32.55;5.47;;;;;;;;;;5044342;28;20819;-48
2022/03/28 06:43:26;;;;;;;31.73;5.35;;;;;;;;;;5041721;28;20036;-48
2022/03/28 06:45:52;;;;;;;26.27;3.80;;;;;;;;;;5037906;28;20436;-60
2022/03/28 06:48:19;;;;;;;25.60;4.57;;;;;;;;;;5038600;28;20391;-47
2022/03/28 06:50:45;;;;;;;24.95;3.97;;;;;;;;;;5042658;28;20556;-52
2022/03/28 06:53:11;;;;;;;32.17;5.10;;;;;;;;;;5049852;28;20060;-48
2022/03/28 06:55:37;;;;;;;34.65;4.22;;;;;;;;;;5049610;28;20032;-47
2022/03/28 06:58:05;;;;;;;26.20;4.75;;;;;;;;;;5043580;28;20244;-52
2022/03/28 07:00:31;;;;;;;28.92;5.03;;;;;;;;;;5041873;28;20227;-48
2022/03/28 07:02:57;;;;;;;39.85;6.45;;;;;;;;;;5041993;28;20021;-49
2022/03/28 07:05:23;;;;;;;30.80;4.50;;;;;;;;;;5039225;28;20484;-52
2022/03/28 07:07:50;;;;;;;22.55;5.38;;;;;;;;;;5033838;28;20096;-57
2022/03/28 07:10:19;;;;;;;17.67;4.90;;;;;;;;;;5039768;28;20029;-49
2022/03/28 07:12:46;;;;;;;22.90;4.65;;;;;;;;;;5040170;28;20152;-48
2022/03/28 07:15:12;;;;;;;15.57;7.10;;;;;;;;;;5034281;28;20029;-50
2022/03/28 07:17:54;;;;;;;12.57;7.22;;;;;;;;;;5031085;28;20022;-48
2022/03/28 07:20:22;;;;;;;19.60;8.35;;;;;;;;;;5031688;28;20068;-50
2022/03/28 07:22:48;;;;;;;12.23;7.32;;;;;;;;;;5032685;28;20116;-47
2022/03/28 07:25:16;;;;;;;14.85;7.28;;;;;;;;;;5034953;28;20017;-47
2022/03/28 07:27:42;;;;;;;16.13;7.30;;;;;;;;;;5034472;28;20048;-46
2022/03/28 07:30:09;;;;;;;13.30;7.25;;;;;;;;;;5034289;28;20029;-48
2022/03/28 07:32:35;;;;;;;12.35;6.47;;;;;;;;;;5042855;28;20075;-45
2022/03/28 07:35:02;;;;;;;11.98;6.57;;;;;;;;;;5045142;28;20132;-44
2022/03/28 07:37:28;;;;;;;16.95;7.38;;;;;;;;;;5033742;28;20112;-50
2022/03/28 07:39:55;;;;;;;17.17;8.18;;;;;;;;;;5034391;28;20101;-50
2022/03/28 07:42:21;;;;;;;15.80;7.68;;;;;;;;;;5033901;28;20052;-47
2022/03/28 07:44:48;;;;;;;16.10;6.47;;;;;;;;;;5037256;28;20041;-45
2022/03/28 07:47:14;;;;;;;22.38;5.93;;;;;;;;;;5042633;28;20025;-47
2022/03/28 07:49:40;;;;;;;25.17;6.93;;;;;;;;;;5033676;28;20029;-48
2022/03/28 07:52:07;;;;;;;18.77;7.57;;;;;;;;;;5047178;28;20135;-46
2022/03/28 07:54:34;;;;;;;17.27;5.95;;;;;;;;;;5035183;28;20029;-46
2022/03/28 07:57:00;;;;;;;20.90;6.25;;;;;;;;;;5044888;28;20083;-46
2022/03/28 07:59:27;;;;;;;15.13;5.53;;;;;;;;;;5042473;28;20124;-46
2022/03/28 08:01:53;;;;;;;21.52;5.97;;;;;;;;;;5031591;28;20024;-44
2022/03/28 08:04:19;;;;;;;12.70;5.60;;;;;;;;;;5039821;28;20167;-47
2022/03/28 08:06:45;;;;;;;15.45;5.18;;;;;;;;;;5039205;28;20523;-47
2022/03/28 08:09:12;;;;;;;11.10;5.85;;;;;;;;;;5047458;28;20087;-47
2022/03/28 08:11:38;;;;;;;12.38;5.35;;;;;;;;;;5047462;28;20037;-48
2022/03/28 08:14:04;;;;;;;16.77;5.78;;;;;;;;;;5047428;28;20455;-47
2022/03/28 08:16:31;;;;;;;13.98;5.72;;;;;;;;;;5047765;28;20021;-48
2022/03/28 08:18:58;;;;;;;13.90;5.85;;;;;;;;;;5047644;28;20017;-49
2022/03/28 08:21:25;;;;;;;10.75;5.25;;;;;;;;;;5047178;28;20071;-46
2022/03/28 08:23:51;;;;;;;12.10;5.38;;;;;;;;;;5047763;28;20085;-49
2022/03/28 08:26:17;;;;;;;11.40;5.25;;;;;;;;;;5042490;28;20642;-49
2022/03/28 08:28:44;;;;;;;14.57;4.43;;;;;;;;;;5042815;28;20107;-50
2022/03/28 08:31:10;;;;;;;11.23;4.60;;;;;;;;;;5027729;28;20073;-47
2022/03/28 08:33:36;;;;;;;14.45;4.57;;;;;;;;;;5046459;28;20382;-48
2022/03/28 08:36:02;;;;;;;16.60;5.05;;;;;;;;;;5047913;28;20025;-48
2022/03/28 08:38:28;;;;;;;8.40;4.10;;;;;;;;;;5048421;28;20036;-50
2022/03/28 08:40:55;;;;;;;12.73;4.20;;;;;;;;;;5049106;28;20033;-45
2022/03/28 08:43:22;;;;;;;11.82;4.68;;;;;;;;;;5048443;28;20029;-51
2022/03/28 08:45:51;;;;;;;9.93;4.57;;;;;;;;;;5048600;28;20025;-51
2022/03/28 08:48:17;;;;;;;8.50;3.97;;;;;;;;;;5048417;28;20137;-50
2022/03/28 08:50:44;;;;;;;11.23;4.20;;;;;;;;;;5049222;28;20885;-52
2022/03/28 08:53:11;;;;;;;12.90;4.50;;;;;;;;;;5048681;28;20104;-47
2022/03/28 08:55:39;;;;;;;10.48;3.72;;;;;;;;;;5048723;28;20040;-48
2022/03/28 08:58:05;;;;;;;10.57;4.18;;;;;;;;;;5048316;28;20074;-46
2022/03/28 09:00:31;;;;;;;10.68;4.47;;;;;;;;;;5047941;28;20025;-48
2022/03/28 09:02:58;;;;;;;8.82;3.60;;;;;;;;;;5047999;28;20028;-52
2022/03/28 09:05:31;;;;;;;10.18;3.30;;;;;;;;;;5048713;28;20037;-52
2022/03/28 09:07:58;;;;;;;7.70;3.72;;;;;;;;;;5048379;28;20032;-48
2022/03/28 09:10:25;;;;;;;9.07;3.85;;;;;;;;;;5049018;28;20021;-49
2022/03/28 09:13:01;;;;;;;6.65;3.60;;;;;;;;;;5048151;28;20098;-50
2022/03/28 09:15:41;;;;;;;9.32;3.38;;;;;;;;;;5048702;28;20116;-52
2022/03/28 09:18:08;;;;;;;15.10;3.50;;;;;;;;;;5049142;28;20029;-46
2022/03/28 09:20:36;;;;;;;7.22;3.75;;;;;;;;;;5052494;28;20112;-48
2022/03/28 09:23:25;;;;;;;10.00;3.53;;;;;;;;;;5052712;28;20029;-50
2022/03/28 09:25:51;;;;;;;12.15;3.38;;;;;;;;;;5050253;28;20368;-50
2022/03/28 09:28:23;;;;;;;7.65;3.28;;;;;;;;;;5051692;28;20666;-51
2022/03/28 09:30:49;;;;;;;7.55;2.85;;;;;;;;;;5037449;28;20033;-48
2022/03/28 09:33:18;;;;;;;8.90;3.30;;;;;;;;;;5051958;28;20037;-49
2022/03/28 09:35:48;;;;;;;6.78;2.85;;;;;;;;;;5051806;28;20432;-50
2022/03/28 09:38:18;;;;;;;7.60;2.72;;;;;;;;;;5051996;28;20064;-49
2022/03/28 09:40:51;;;;;;;7.93;3.08;;;;;;;;;;5051545;28;20094;-49
2022/03/28 09:43:17;;;;;;;8.18;2.90;;;;;;;;;;5052438;28;20029;-49
2022/03/28 09:45:46;;;;;;;8.80;3.45;;;;;;;;;;5051995;28;20055;-51
2022/03/28 09:48:14;;;;;;;8.70;3.23;;;;;;;;;;5051445;28;20028;-47
2022/03/28 09:50:46;;;;;;;5.85;3.10;;;;;;;;;;5052002;28;20044;-51
2022/03/28 09:53:16;;;;;;;18.27;10.25;;;;;;;;;;5034730;28;20038;-46
2022/03/28 09:55:46;;;;;;;21.80;11.15;;;;;;;;;;5051479;28;20021;-50
2022/03/28 09:58:31;;;;;;;13.68;8.95;;;;;;;;;;5042971;28;20018;-50
2022/03/28 10:00:57;;;;;;;18.88;7.85;;;;;;;;;;5044911;28;20030;-48
2022/03/28 10:03:23;;;;;;;13.75;7.57;;;;;;;;;;5040812;28;20096;-49
2022/03/28 10:05:50;;;;;;;10.70;6.45;;;;;;;;;;5046140;28;20104;-49
2022/03/28 10:08:16;;;;;;;9.73;6.35;;;;;;;;;;5042028;28;20116;-47
2022/03/28 10:10:42;;;;;;;10.38;5.88;;;;;;;;;;5041145;28;20116;-47
2022/03/28 10:13:09;;;;;;;11.48;7.10;;;;;;;;;;5042388;28;20025;-48
2022/03/28 10:15:35;;;;;;;11.50;6.07;;;;;;;;;;5044780;28;20491;-49
2022/03/28 10:18:02;;;;;;;14.32;6.63;;;;;;;;;;5048150;28;20033;-49
2022/03/28 10:20:28;;;;;;;12.10;5.88;;;;;;;;;;5043885;28;20140;-51
2022/03/28 10:22:55;;;;;;;10.60;6.13;;;;;;;;;;5042913;28;20392;-47
2022/03/28 10:25:22;;;;;;;12.52;6.18;;;;;;;;;;5041141;28;20147;-49
2022/03/28 10:27:50;;;;;;;19.27;5.63;;;;;;;;;;5047139;28;20037;-47
2022/03/28 10:30:20;;;;;;;11.10;6.07;;;;;;;;;;5043879;28;20033;-50
2022/03/28 10:32:46;;;;;;;16.27;6.40;;;;;;;;;;5049973;28;20029;-51
2022/03/28 10:35:16;;;;;;;10.00;5.82;;;;;;;;;;5051445;28;20112;-49
2022/03/28 10:37:47;;;;;;;11.73;5.55;;;;;;;;;;5047005;28;20029;-49
2022/03/28 10:40:16;;;;;;;10.25;4.68;;;;;;;;;;5039635;28;20033;-47
2022/03/28 10:42:46;;;;;;;11.98;4.38;;;;;;;;;;5044672;28;20099;-49
2022/03/28 10:45:18;;;;;;;;;;;;;;;;;;5040652;28;20033;-48
2022/03/28 10:47:50;;;;;;;8.93;4.45;;;;;;;;;;5043762;28;19905;-44
2022/03/28 10:50:18;;;;;;;11.27;3.92;;;;;;;;;;5040131;28;20063;-49
2022/03/28 10:53:03;;;;;;;12.68;4.95;;;;;;;;;;5045470;28;20021;-50
2022/03/28 10:55:37;;;;;;;7.35;4.07;;;;;;;;;;5039266;28;20036;-46
2022/03/28 10:58:12;;;;;;;11.07;4.20;;;;;;;;;;5050671;28;20029;-45
2022/03/28 11:00:38;;;;;;;14.35;5.00;;;;;;;;;;5030144;28;20091;-46
2022/03/28 11:03:04;;;;;;;10.55;4.40;;;;;;;;;;5045723;28;20112;-51
2022/03/28 11:05:31;;;;;;;13.52;4.95;;;;;;;;;;5050447;28;20837;-50
2022/03/28 11:08:03;;;;;;;15.40;4.80;;;;;;;;;;5048569;28;20031;-52
2022/03/28 11:10:29;;;;;;;11.98;5.28;;;;;;;;;;5044882;28;20083;-49
2022/03/28 11:13:14;;;;;;;12.60;5.05;;;;;;;;;;5042962;28;20135;-49
2022/03/28 11:15:40;;;;;;;18.25;5.50;;;;;;;;;;5040191;28;20029;-50
2022/03/28 11:18:10;;;;;;;14.38;4.90;;;;;;;;;;5042594;28;20030;-53
2022/03/28 11:20:46;;;;;;;19.92;4.50;;;;;;;;;;5038781;28;20505;-47
2022/03/28 11:23:13;;;;;;;12.25;4.82;;;;;;;;;;5043874;28;20128;-48
2022/03/28 11:25:42;;;;;;;11.70;4.80;;;;;;;;;;5039128;28;20025;-50
2022/03/28 11:28:14;;;;;;;9.98;4.47;;;;;;;;;;5040533;28;20097;-47
2022/03/28 11:30:40;;;;;;;20.17;4.95;;;;;;;;;;5040157;28;20029;-50
2022/03/28 11:33:11;;;;;;;15.85;4.88;;;;;;;;;;5042428;28;20036;-48
2022/03/28 11:35:37;;;;;;;14.15;4.35;;;;;;;;;;5037915;28;20033;-51
2022/03/28 11:38:04;;;;;;;13.77;4.22;;;;;;;;;;5041467;28;20043;-50
2022/03/28 11:40:37;;;;;;;11.80;4.45;;;;;;;;;;5037283;28;20105;-49
2022/03/28 11:43:03;;;;;;;10.15;4.03;;;;;;;;;;5040452;28;20021;-48
2022/03/28 11:45:31;;;;;;;11.60;4.53;;;;;;;;;;5040714;28;20036;-50
2022/03/28 11:47:59;;;;;;;9.43;3.78;;;;;;;;;;5039457;28;20112;-50
2022/03/28 11:50:28;;;;;;;10.93;4.10;;;;;;;;;;5043721;28;20513;-50
2022/03/28 11:52:54;;;;;;;11.88;3.63;;;;;;;;;;5038733;28;20103;-50
2022/03/28 11:55:24;;;;;;;10.73;3.60;;;;;;;;;;5042266;28;20025;-48
2022/03/28 12:00:36;;;;;;;10.15;3.92;;;;;;;;;;5041674;28;20589;-47
2022/03/28 12:03:03;;;;;;;9.15;3.03;;;;;;;;;;5040603;28;20483;-50
2022/03/28 12:05:36;;;;;;;11.77;3.88;;;;;;;;;;5042388;28;20021;-48
2022/03/28 12:08:08;;;;;;;6.82;3.67;;;;;;;;;;5038482;28;20021;-47
2022/03/28 12:10:34;;;;;;;7.72;3.40;;;;;;;;;;5036941;28;20037;-51
2022/03/28 12:13:03;;;;;;;8.07;4.47;;;;;;;;;;5039260;28;20589;-48
2022/03/28 12:15:34;;;;;;;8.93;3.08;;;;;;;;;;5041226;28;20401;-51
2022/03/28 12:18:01;;;;;;;8.93;3.88;;;;;;;;;;5038538;28;20064;-51
2022/03/28 12:20:29;;;;;;;10.82;2.97;;;;;;;;;;5041620;28;20099;-50
2022/03/28 12:22:55;;;;;;;6.85;3.63;;;;;;;;;;5036041;28;20503;-50
2022/03/28 12:25:25;;;;;;;10.60;3.40;;;;;;;;;;5041276;28;20025;-48
2022/03/28 12:27:53;;;;;;;8.43;3.78;;;;;;;;;;5034639;28;20040;-52
2022/03/28 12:30:20;;;;;;;12.73;4.30;;;;;;;;;;5040508;28;20029;-49
2022/03/28 12:32:45;;;;;;;6.45;3.28;;;;;;;;;;5038007;28;20072;-49
2022/03/28 12:35:12;;;;;;;8.05;3.80;;;;;;;;;;5044273;28;20130;-51
2022/03/28 12:37:38;;;;;;;10.05;4.10;;;;;;;;;;5036005;28;20029;-50
2022/03/28 12:40:05;;;;;;;12.10;3.88;;;;;;;;;;5039657;28;20041;-50
2022/03/28 12:42:32;;;;;;;7.00;3.40;;;;;;;;;;5038457;28;20353;-48
2022/03/28 12:44:58;;;;;;;6.60;3.83;;;;;;;;;;5034210;28;20060;-48
2022/03/28 12:47:28;;;;;;;10.70;4.43;;;;;;;;;;5043653;28;20474;-49
2022/03/28 12:49:54;;;;;;;8.45;4.63;;;;;;;;;;5037918;28;20104;-50
2022/03/28 12:52:24;;;;;;;12.55;4.65;;;;;;;;;;5035023;28;20025;-49
2022/03/28 12:54:57;;;;;;;9.18;3.55;;;;;;;;;;5032160;28;20029;-49
2022/03/28 12:57:27;;;;;;;9.60;3.90;;;;;;;;;;5031593;28;20119;-50
2022/03/28 12:59:54;;;;;;;;;;;;;;;;;;5033258;28;20041;-52
2022/03/28 13:02:20;;;;;;;13.70;5.40;;;;;;;;;;5030641;28;19917;-46
2022/03/28 13:04:46;;;;;;;13.20;5.78;;;;;;;;;;5030371;28;20026;-49
2022/03/28 13:07:19;;;;;;;13.38;5.50;;;;;;;;;;5031620;28;20017;-51
2022/03/28 13:09:57;;;;;;;10.80;4.88;;;;;;;;;;5033885;28;20037;-51
2022/03/28 13:12:38;;;;;;;9.02;4.93;;;;;;;;;;5032679;28;20495;-47
2022/03/28 13:15:05;;;;;;;14.90;5.63;;;;;;;;;;5035509;28;20124;-52
2022/03/28 13:17:31;;;;;;;13.43;5.78;;;;;;;;;;5032700;28;20025;-50
2022/03/28 13:19:59;;;;;;;9.35;4.82;;;;;;;;;;5030408;28;20856;-51
2022/03/28 13:22:50;;;;;;;10.77;5.25;;;;;;;;;;5032518;28;20108;-49
2022/03/28 13:25:19;;;;;;;13.30;5.45;;;;;;;;;;5027477;28;20033;-48
2022/03/28 13:28:01;;;;;;;11.88;5.00;;;;;;;;;;5030216;28;20080;-49
2022/03/28 13:30:28;;;;;;;10.68;5.32;;;;;;;;;;5030078;28;20037;-51
2022/03/28 13:32:55;;;;;;;10.30;5.53;;;;;;;;;;5032812;28;20036;-49
2022/03/28 13:35:25;;;;;;;14.05;5.22;;;;;;;;;;5030461;28;20472;-50
2022/03/28 13:38:01;;;;;;;9.55;5.00;;;;;;;;;;5031101;28;20025;-50
2022/03/28 13:40:28;;;;;;;11.48;5.72;;;;;;;;;;5029563;28;20091;-49
2022/03/28 13:42:54;;;;;;;10.27;4.75;;;;;;;;;;5029033;28;20073;-48
2022/03/28 13:45:21;;;;;;;8.10;4.13;;;;;;;;;;5031453;28;20040;-50
2022/03/28 13:47:47;;;;;;;13.98;4.72;;;;;;;;;;5033005;28;20779;-51
2022/03/28 13:50:14;;;;;;;10.02;4.53;;;;;;;;;;5033165;28;20042;-52
2022/03/28 13:52:40;;;;;;;12.80;4.43;;;;;;;;;;5032604;28;20029;-52
2022/03/28 13:55:06;;;;;;;9.80;4.15;;;;;;;;;;5033872;28;20025;-62
2022/03/28 13:57:32;;;;;;;13.88;7.05;;;;;;;;;;5031032;28;20025;-46
2022/03/28 13:59:58;;;;;;;13.55;5.88;;;;;;;;;;5031566;28;20052;-51
2022/03/28 14:02:24;;;;;;;10.40;5.68;;;;;;;;;;5033931;28;20043;-50
2022/03/28 14:04:51;;;;;;;15.60;6.13;;;;;;;;;;5032080;28;20562;-49
2022/03/28 14:07:17;;;;;;;9.57;4.80;;;;;;;;;;5037572;28;20029;-52
2022/03/28 14:09:43;;;;;;;13.07;5.72;;;;;;;;;;5036548;28;20021;-48
2022/03/28 14:12:09;;;;;;;14.25;5.90;;;;;;;;;;5033036;28;20103;-49
2022/03/28 14:14:38;;;;;;;12.70;5.95;;;;;;;;;;5045624;28;20167;-51
2022/03/28 14:17:04;;;;;;;9.13;5.78;;;;;;;;;;5049323;28;20061;-50
2022/03/28 14:19:30;;;;;;;16.83;10.55;;;;;;;;;;5048658;28;20029;-51
2022/03/28 14:21:57;;;;;;;21.95;11.68;;;;;;;;;;5048892;28;20032;-52
2022/03/28 14:24:23;;;;;;;16.15;8.38;;;;;;;;;;5048633;28;20395;-48
2022/03/28 14:26:49;;;;;;;23.92;12.55;;;;;;;;;;5048885;28;20116;-51
2022/03/28 14:29:15;;;;;;;17.48;9.27;;;;;;;;;;5047593;28;20127;-52
2022/03/28 14:31:41;;;;;;;17.65;7.47;;;;;;;;;;5048721;28;20135;-50
2022/03/28 14:34:07;;;;;;;17.92;7.57;;;;;;;;;;5048287;28;20522;-51
2022/03/28 14:36:33;;;;;;;16.67;6.60;;;;;;;;;;5049521;28;20033;-47
2022/03/28 14:38:59;;;;;;;16.30;6.30;;;;;;;;;;5048650;28;20039;-52